Time;durP1;ratioP1;P1;durP2;ratioP2;P2;SDS_P1;SDS_P2;PMS_P1;PMS_P2;Temp;Humidity;BMP_temperature;BMP_pressure;BME280_temperature;BME280_humidity;BME280_pressure;Samples;Min_cycle;Max_cycle;Signal;HPM_P1;HPM_P2
2023/05/26 00:02:00;;;;;;;19.90;4.83;;;;;;;10.37;93.71;102900.41;5090334;28;20028;-36
2023/05/26 00:04:25;;;;;;;15.40;4.38;;;;;;;10.31;94.10;102905.53;5089909;28;20020;-36
2023/05/26 00:06:52;;;;;;;23.60;5.87;;;;;;;10.23;95.35;102902.00;5090329;28;20043;-36
2023/05/26 00:09:20;;;;;;;18.15;5.57;;;;;;;10.18;95.37;102912.50;5089813;28;20116;-36
2023/05/26 00:11:45;;;;;;;14.85;5.07;;;;;;;10.30;95.51;102908.41;5080577;28;20388;-36
2023/05/26 00:14:14;;;;;;;14.85;3.90;;;;;;;10.29;95.53;102906.72;5076596;28;20024;-36
2023/05/26 00:16:39;;;;;;;20.42;5.47;;;;;;;10.17;96.12;102891.91;5076294;28;20086;-36
2023/05/26 00:19:07;;;;;;;18.55;4.90;;;;;;;10.32;94.90;102914.47;5076109;28;20028;-36
2023/05/26 00:21:34;;;;;;;17.98;5.05;;;;;;;10.34;94.92;102917.00;5076744;28;20016;-36
2023/05/26 00:23:59;;;;;;;17.17;5.00;;;;;;;10.33;95.19;102910.75;5076065;28;20085;-36
2023/05/26 00:26:25;;;;;;;16.05;4.35;;;;;;;10.13;95.60;102917.59;5076430;28;20105;-36
2023/05/26 00:28:51;;;;;;;25.25;5.93;;;;;;;9.96;97.16;102903.34;5076271;28;20390;-36
2023/05/26 00:31:16;;;;;;;17.13;4.88;;;;;;;10.14;96.62;102916.56;5075991;28;20028;-36
2023/05/26 00:33:41;;;;;;;16.70;4.57;;;;;;;10.17;96.36;102921.63;5076518;28;20091;-36
2023/05/26 00:36:07;;;;;;;18.80;5.30;;;;;;;10.14;96.71;102916.56;5076219;28;20274;-36
2023/05/26 00:38:32;;;;;;;16.50;4.20;;;;;;;10.14;96.28;102920.13;5076381;28;20029;-36
2023/05/26 00:40:58;;;;;;;15.67;4.27;;;;;;;10.06;97.15;102918.31;5075745;28;20279;-36
2023/05/26 00:43:24;;;;;;;23.30;5.60;;;;;;;10.06;96.16;102904.81;5075756;28;20031;-36
2023/05/26 00:45:49;;;;;;;15.80;4.47;;;;;;;10.09;96.19;102917.09;5075756;28;20051;-36
2023/05/26 00:48:14;;;;;;;16.90;4.40;;;;;;;10.13;97.39;102918.44;5075664;28;20028;-36
2023/05/26 00:50:41;;;;;;;20.23;4.53;;;;;;;10.08;97.17;102918.13;5075753;28;20056;-36
2023/05/26 00:53:07;;;;;;;18.40;4.80;;;;;;;9.94;96.88;102921.59;5075337;28;20036;-36
2023/05/26 00:55:33;;;;;;;19.10;4.90;;;;;;;9.97;97.28;102919.38;5075329;28;20128;-36
2023/05/26 00:57:59;;;;;;;18.15;4.28;;;;;;;10.00;97.14;102923.56;5075214;28;20056;-36
2023/05/26 01:00:26;;;;;;;25.13;6.25;;;;;;;9.75;97.59;102914.72;5075419;28;20067;-36
2023/05/26 01:02:55;;;;;;;14.77;4.28;;;;;;;9.85;98.58;102923.47;5075113;28;20393;-36
2023/05/26 01:05:21;;;;;;;23.88;5.22;;;;;;;9.82;99.32;102918.44;5075616;28;20035;-36
2023/05/26 01:07:49;;;;;;;18.50;4.72;;;;;;;9.67;98.41;102909.38;5075522;28;20020;-36
2023/05/26 01:10:15;;;;;;;16.60;4.13;;;;;;;9.73;99.10;102916.78;5075537;28;20032;-36
2023/05/26 01:12:45;;;;;;;17.48;4.72;;;;;;;9.75;99.35;102923.69;5075238;28;20066;-36
2023/05/26 01:15:21;;;;;;;15.43;4.60;;;;;;;9.55;98.98;102919.72;5075155;28;20031;-36
2023/05/26 01:18:25;;;;;;;18.17;5.00;;;;;;;9.62;99.67;102930.69;5075425;28;20050;-36
2023/05/26 01:20:59;;;;;;;22.00;6.50;;;;;;;9.50;100.00;102920.22;5066950;28;20040;-36
2023/05/26 01:23:43;;;;;;;15.07;4.63;;;;;;;9.43;100.00;102930.06;5074012;28;20035;-36
2023/05/26 01:26:14;;;;;;;18.55;4.88;;;;;;;9.44;100.00;102933.59;5075450;28;20034;-36
2023/05/26 01:28:43;;;;;;;17.58;4.72;;;;;;;9.52;100.00;102936.28;5075133;28;20082;-36
2023/05/26 01:31:08;;;;;;;17.85;4.88;;;;;;;9.49;100.00;102932.06;5075374;28;20086;-36
2023/05/26 01:33:35;;;;;;;19.27;6.28;;;;;;;9.46;100.00;102931.53;5074744;28;20021;-36
2023/05/26 01:36:00;;;;;;;17.08;4.93;;;;;;;9.44;100.00;102939.00;5075026;28;20033;-36
2023/05/26 01:38:26;;;;;;;20.60;6.80;;;;;;;9.35;100.00;102935.47;5074387;28;20464;-36
2023/05/26 01:41:24;;;;;;;12.98;4.00;;;;;;;9.41;100.00;102932.06;5074936;28;20077;-36
2023/05/26 01:44:13;;;;;;;20.73;4.85;;;;;;;9.34;100.00;102936.47;5074869;28;20020;-36
2023/05/26 01:46:47;;;;;;;14.15;4.25;;;;;;;9.32;100.00;102925.03;5075056;28;20036;-36
2023/05/26 01:49:14;;;;;;;12.73;4.47;;;;;;;9.40;100.00;102943.88;5074478;28;20119;-36
2023/05/26 01:51:46;;;;;;;17.38;4.43;;;;;;;9.21;100.00;102922.66;5074455;28;20052;-36
2023/05/26 01:54:16;;;;;;;16.08;5.07;;;;;;;9.34;100.00;102938.34;5074666;28;20040;-36
2023/05/26 01:56:44;;;;;;;17.65;4.68;;;;;;;9.25;100.00;102937.50;5075184;28;20099;-36
2023/05/26 01:59:10;;;;;;;16.95;5.15;;;;;;;9.08;100.00;102933.13;5074043;28;20029;-36
2023/05/26 02:01:35;;;;;;;19.92;5.18;;;;;;;9.16;100.00;102942.06;5074310;28;20516;-36
2023/05/26 02:04:01;;;;;;;18.60;5.30;;;;;;;9.12;100.00;102937.16;5074211;28;20033;-36
2023/05/26 02:06:26;;;;;;;14.63;4.45;;;;;;;9.04;100.00;102935.34;5074979;28;20089;-36
2023/05/26 02:08:52;;;;;;;15.02;4.53;;;;;;;9.01;100.00;102944.59;5074186;28;20358;-36
2023/05/26 02:11:18;;;;;;;23.67;5.45;;;;;;;8.98;100.00;102944.97;5074691;28;20050;-36
2023/05/26 02:13:45;;;;;;;22.23;5.72;;;;;;;8.93;100.00;102947.31;5074306;28;20025;-36
2023/05/26 02:16:11;;;;;;;17.63;4.55;;;;;;;8.87;100.00;102941.75;5074863;28;20398;-36
2023/05/26 02:18:36;;;;;;;21.88;6.00;;;;;;;8.87;100.00;102944.44;5073914;28;20028;-36
2023/05/26 02:21:02;;;;;;;14.40;4.43;;;;;;;8.90;100.00;102952.22;5074183;28;20028;-36
2023/05/26 02:23:27;;;;;;;19.43;5.47;;;;;;;8.89;100.00;102956.75;5073631;28;20021;-36
2023/05/26 02:25:52;;;;;;;16.97;4.77;;;;;;;8.74;100.00;102948.50;5074215;28;20380;-36
2023/05/26 02:28:18;;;;;;;17.37;5.63;;;;;;;8.64;100.00;102944.28;5073518;28;20032;-36
2023/05/26 02:30:43;;;;;;;17.20;4.40;;;;;;;8.74;100.00;102944.97;5073863;28;20390;-36
2023/05/26 02:33:09;;;;;;;18.27;5.00;;;;;;;8.73;100.00;102965.66;5073521;28;20053;-36
2023/05/26 02:35:35;;;;;;;21.17;5.10;;;;;;;8.75;100.00;102947.47;5073551;28;20443;-36
2023/05/26 02:38:00;;;;;;;20.53;4.93;;;;;;;8.79;100.00;102950.69;5073678;28;20024;-36
2023/05/26 02:40:25;;;;;;;19.63;4.47;;;;;;;8.74;100.00;102958.44;5073677;28;20310;-36
2023/05/26 02:42:51;;;;;;;19.90;5.07;;;;;;;8.71;100.00;102947.97;5073680;28;20028;-36
2023/05/26 02:45:16;;;;;;;16.93;5.30;;;;;;;8.80;100.00;102959.63;5074266;28;20028;-37
2023/05/26 02:47:41;;;;;;;16.73;4.43;;;;;;;8.68;100.00;102956.41;5074429;28;20103;-36
2023/05/26 02:50:07;;;;;;;15.97;4.40;;;;;;;8.72;100.00;102960.44;5073612;28;20031;-36
2023/05/26 02:52:32;;;;;;;18.50;5.38;;;;;;;8.73;100.00;102960.28;5073549;28;20024;-36
2023/05/26 02:54:58;;;;;;;17.53;4.33;;;;;;;8.68;100.00;102956.41;5073537;28;20078;-36
2023/05/26 02:57:23;;;;;;;19.50;5.43;;;;;;;8.59;100.00;102952.00;5073863;28;20029;-36
2023/05/26 02:59:48;;;;;;;18.33;5.13;;;;;;;8.58;100.00;102953.84;5073648;28;20040;-36
2023/05/26 03:02:14;;;;;;;15.17;4.07;;;;;;;8.55;100.00;102950.66;5073798;28;20044;-36
2023/05/26 03:04:39;;;;;;;23.70;5.28;;;;;;;8.37;100.00;102946.25;5073406;28;20454;-36
2023/05/26 03:07:07;;;;;;;18.77;4.60;;;;;;;8.45;100.00;102946.28;5073954;28;20040;-36
2023/05/26 03:09:33;;;;;;;20.42;5.68;;;;;;;8.34;100.00;102949.22;5073333;28;20040;-36
2023/05/26 03:11:58;;;;;;;15.57;5.07;;;;;;;8.29;100.00;102932.69;5073076;28;20032;-36
2023/05/26 03:14:25;;;;;;;14.47;4.63;;;;;;;8.39;100.00;102955.00;5073299;28;20068;-36
2023/05/26 03:16:51;;;;;;;;;;;;;;;8.54;100.00;102948.97;5074362;28;20281;-36
2023/05/26 03:19:17;;;;;;;20.87;5.27;;;;;;;8.35;100.00;102944.69;5073212;28;20002;-36
2023/05/26 03:21:42;;;;;;;21.10;5.45;;;;;;;8.39;100.00;102951.47;5073355;28;20351;-36
2023/05/26 03:24:08;;;;;;;19.02;5.63;;;;;;;8.29;100.00;102956.13;5073220;28;20104;-36
2023/05/26 03:26:33;;;;;;;16.83;4.43;;;;;;;8.36;100.00;102951.78;5074091;28;20052;-36
2023/05/26 03:28:58;;;;;;;15.20;4.20;;;;;;;8.34;100.00;102962.69;5073235;28;20040;-36
2023/05/26 03:31:26;;;;;;;14.37;4.50;;;;;;;8.32;100.00;102971.97;5072932;28;20028;-36
2023/05/26 03:33:51;;;;;;;14.13;4.70;;;;;;;8.20;100.00;102966.91;5073087;28;20380;-36
2023/05/26 03:36:17;;;;;;;9.40;3.65;;;;;;;8.30;100.00;102969.47;5073235;28;20115;-36
2023/05/26 03:38:43;;;;;;;;;;;;;;;8.40;100.00;102961.25;5074368;28;20020;-36
2023/05/26 03:41:08;;;;;;;13.13;3.90;;;;;;;8.19;100.00;102970.56;5073415;28;19913;-36
2023/05/26 03:43:33;;;;;;;16.53;4.40;;;;;;;8.17;100.00;102969.91;5073411;28;20411;-36
2023/05/26 03:46:00;;;;;;;20.30;5.03;;;;;;;8.09;100.00;102980.66;5074098;28;20062;-36
2023/05/26 03:48:26;;;;;;;19.88;5.20;;;;;;;8.09;100.00;102969.03;5077015;28;20278;-36
2023/05/26 03:50:51;;;;;;;16.17;5.30;;;;;;;8.05;100.00;102973.06;5077311;28;20461;-36
2023/05/26 03:53:17;;;;;;;17.23;4.97;;;;;;;8.13;100.00;102979.31;5076651;28;20028;-36
2023/05/26 03:55:42;;;;;;;18.92;4.65;;;;;;;8.06;100.00;102988.25;5076994;28;20029;-36
2023/05/26 03:58:08;;;;;;;22.05;5.13;;;;;;;8.17;100.00;102982.53;5076367;28;20021;-36
2023/05/26 04:00:33;;;;;;;18.13;4.40;;;;;;;8.00;100.00;102982.50;5076852;28;20122;-36
2023/05/26 04:03:00;;;;;;;20.00;6.20;;;;;;;8.04;100.00;102979.44;5077089;28;20063;-36
2023/05/26 04:05:26;;;;;;;17.95;4.78;;;;;;;8.07;100.00;102979.13;5076739;28;20036;-36
2023/05/26 04:07:51;;;;;;;16.40;4.65;;;;;;;8.08;100.00;102975.44;5076165;28;20021;-36
2023/05/26 04:10:17;;;;;;;12.25;4.35;;;;;;;8.10;100.00;102974.28;5076403;28;20031;-36
2023/05/26 04:12:42;;;;;;;21.63;5.40;;;;;;;8.17;100.00;102982.53;5076352;28;20056;-36
2023/05/26 04:15:09;;;;;;;16.85;5.53;;;;;;;8.18;100.00;102982.38;5077131;28;20040;-35
2023/05/26 04:17:35;;;;;;;17.77;5.00;;;;;;;8.07;100.00;102971.06;5076855;28;20028;-36
2023/05/26 04:20:01;;;;;;;16.40;4.72;;;;;;;8.16;100.00;102979.00;5076702;28;20056;-35
2023/05/26 04:22:26;;;;;;;18.75;4.90;;;;;;;8.16;100.00;102988.94;5076505;28;20086;-35
2023/05/26 04:24:51;;;;;;;18.73;5.50;;;;;;;8.12;100.00;102990.28;5076157;28;20062;-36
2023/05/26 04:27:17;;;;;;;17.33;4.20;;;;;;;8.12;100.00;102991.13;5076444;28;20025;-35
2023/05/26 04:29:42;;;;;;;21.37;5.27;;;;;;;8.02;100.00;102994.94;5076063;28;20035;-35
2023/05/26 04:32:11;;;;;;;21.80;5.50;;;;;;;8.08;100.00;103000.53;5076594;28;20024;-36
2023/05/26 04:34:37;;;;;;;18.15;5.25;;;;;;;8.06;100.00;102983.69;5076406;28;20074;-35
2023/05/26 04:37:04;;;;;;;;;;;;;;;8.23;100.00;102995.38;5076952;28;20028;-35
2023/05/26 04:39:30;;;;;;;20.35;4.97;;;;;;;8.32;100.00;102994.38;5075792;28;19913;-35
2023/05/26 04:41:55;;;;;;;19.52;5.30;;;;;;;8.34;100.00;103008.53;5075852;28;20029;-35
2023/05/26 04:44:22;;;;;;;19.87;4.80;;;;;;;8.31;100.00;102992.69;5075784;28;20029;-35
2023/05/26 04:46:48;;;;;;;16.50;4.85;;;;;;;8.47;100.00;103000.88;5076283;28;20067;-35
2023/05/26 04:49:16;;;;;;;15.88;4.72;;;;;;;8.57;100.00;102998.03;5075680;28;20053;-36
2023/05/26 04:51:41;;;;;;;17.38;5.18;;;;;;;8.62;100.00;103000.22;5075350;28;20487;-35
2023/05/26 04:54:07;;;;;;;18.25;5.10;;;;;;;8.62;100.00;103000.22;5075290;28;20021;-35
2023/05/26 04:56:32;;;;;;;17.17;4.87;;;;;;;8.57;100.00;103000.72;5076217;28;20032;-35
2023/05/26 04:58:58;;;;;;;19.03;5.03;;;;;;;8.65;100.00;103003.44;5075338;28;20058;-36
2023/05/26 05:01:24;;;;;;;17.48;4.63;;;;;;;8.68;100.00;103004.94;5075099;28;20412;-36
2023/05/26 05:03:49;;;;;;;17.35;5.20;;;;;;;8.85;100.00;103003.97;5075142;28;20032;-36
2023/05/26 05:06:15;;;;;;;16.77;4.88;;;;;;;8.80;100.00;103019.81;5075377;28;20127;-35
2023/05/26 05:08:41;;;;;;;21.52;5.18;;;;;;;8.74;100.00;103012.41;5075838;28;20078;-36
2023/05/26 05:11:06;;;;;;;20.20;5.28;;;;;;;8.81;100.00;103024.19;5075568;28;20366;-35
2023/05/26 05:13:32;;;;;;;21.80;4.87;;;;;;;8.87;100.00;103007.34;5075714;28;20377;-35
2023/05/26 05:15:58;;;;;;;16.58;4.90;;;;;;;9.06;100.00;103024.22;5075478;28;20078;-35
2023/05/26 05:18:23;;;;;;;19.77;4.90;;;;;;;9.16;100.00;103024.91;5075175;28;20033;-36
2023/05/26 05:20:48;;;;;;;23.20;5.70;;;;;;;9.16;100.00;103023.03;5075000;28;20029;-36
2023/05/26 05:23:14;;;;;;;22.40;5.77;;;;;;;9.26;100.00;103022.88;5074763;28;20025;-36
2023/05/26 05:25:41;;;;;;;17.40;4.63;;;;;;;9.37;100.00;103025.25;5075607;28;20028;-36
2023/05/26 05:28:06;;;;;;;23.40;6.07;;;;;;;9.37;100.00;103022.56;5074886;28;20460;-36
2023/05/26 05:30:32;;;;;;;19.33;5.28;;;;;;;9.41;100.00;103023.03;5074997;28;20067;-36
2023/05/26 05:32:57;;;;;;;22.60;5.57;;;;;;;9.52;100.00;103025.41;5075089;28;20372;-36
2023/05/26 05:35:22;;;;;;;21.67;4.80;;;;;;;9.64;100.00;103036.69;5075365;28;20356;-36
2023/05/26 05:37:48;;;;;;;19.17;5.60;;;;;;;9.63;100.00;103030.44;5074785;28;20025;-36
2023/05/26 05:40:13;;;;;;;20.95;4.90;;;;;;;9.73;100.00;103038.38;5074945;28;20047;-36
2023/05/26 05:42:39;;;;;;;23.20;5.63;;;;;;;9.83;100.00;103033.59;5074547;28;20032;-36
2023/05/26 05:45:05;;;;;;;19.73;5.47;;;;;;;9.81;100.00;103032.94;5074618;28;20110;-36
2023/05/26 05:47:30;;;;;;;18.17;4.93;;;;;;;9.89;100.00;103040.19;5074602;28;20099;-36
2023/05/26 05:49:56;;;;;;;21.13;5.43;;;;;;;10.07;100.00;103038.94;5074227;28;20056;-36
2023/05/26 05:52:21;;;;;;;15.63;5.57;;;;;;;10.00;99.94;103021.75;5075039;28;20028;-36
2023/05/26 05:54:46;;;;;;;19.53;5.37;;;;;;;10.09;100.00;103035.22;5074113;28;20271;-35
2023/05/26 05:57:12;;;;;;;18.10;4.77;;;;;;;10.23;100.00;103048.84;5074665;28;20024;-36
2023/05/26 05:59:37;;;;;;;18.77;4.87;;;;;;;10.28;98.89;103034.84;5073942;28;20056;-36
2023/05/26 06:02:03;;;;;;;15.65;4.57;;;;;;;10.44;98.17;103047.44;5074543;28;20373;-36
2023/05/26 06:04:28;;;;;;;20.05;5.28;;;;;;;10.54;98.68;103050.75;5074507;28;20040;-36
2023/05/26 06:06:53;;;;;;;20.50;4.93;;;;;;;10.49;97.58;103043.19;5074477;28;20062;-36
2023/05/26 06:09:20;;;;;;;18.23;5.70;;;;;;;10.44;96.65;103051.00;5073583;28;20028;-36
2023/05/26 06:11:45;;;;;;;19.45;6.60;;;;;;;10.36;97.34;103033.97;5074334;28;20032;-35
2023/05/26 06:14:11;;;;;;;18.87;5.07;;;;;;;10.32;96.63;103047.00;5074022;28;20465;-36
2023/05/26 06:16:36;;;;;;;18.98;5.30;;;;;;;10.51;98.42;103057.38;5074243;28;20742;-36
2023/05/26 06:19:02;;;;;;;20.43;5.80;;;;;;;10.70;99.08;103061.50;5074153;28;20059;-36
2023/05/26 06:21:28;;;;;;;20.80;5.00;;;;;;;10.91;97.72;103052.75;5073959;28;20366;-36
2023/05/26 06:23:53;;;;;;;22.00;6.05;;;;;;;11.16;96.20;103055.28;5073853;28;20028;-35
2023/05/26 06:26:18;;;;;;;19.63;4.93;;;;;;;11.24;94.38;103061.47;5074180;28;20031;-35
2023/05/26 06:28:44;;;;;;;18.93;5.00;;;;;;;11.24;92.52;103052.53;5073699;28;20362;-36
2023/05/26 06:31:09;;;;;;;20.70;5.82;;;;;;;11.32;93.10;103060.56;5073817;28;20028;-35
2023/05/26 06:33:34;;;;;;;17.13;4.60;;;;;;;11.24;91.83;103049.81;5073756;28;20025;-36
2023/05/26 06:36:00;;;;;;;20.90;5.47;;;;;;;11.31;90.58;103051.59;5073987;28;20853;-35
2023/05/26 06:38:25;;;;;;;19.95;4.45;;;;;;;11.27;88.43;103050.31;5073309;28;20460;-36
2023/05/26 06:40:51;;;;;;;22.23;5.50;;;;;;;11.44;88.38;103050.16;5073335;28;20024;-36
2023/05/26 06:43:16;;;;;;;12.30;4.40;;;;;;;11.56;88.44;103056.78;5073682;28;20021;-35
2023/05/26 06:45:41;;;;;;;16.83;5.00;;;;;;;11.51;87.95;103065.47;5073319;28;20317;-36
2023/05/26 06:48:07;;;;;;;17.70;4.67;;;;;;;11.46;86.40;103064.34;5073522;28;20035;-35
2023/05/26 06:50:32;;;;;;;21.13;5.50;;;;;;;11.52;87.21;103058.22;5073594;28;20107;-35
2023/05/26 06:52:57;;;;;;;19.77;4.70;;;;;;;11.47;86.40;103061.47;5073230;28;20266;-35
2023/05/26 06:55:22;;;;;;;21.27;5.60;;;;;;;11.56;86.15;103064.91;5073563;28;20024;-36
2023/05/26 06:57:48;;;;;;;18.43;4.73;;;;;;;11.54;85.27;103062.41;5073500;28;20025;-36
2023/05/26 07:00:14;;;;;;;16.50;4.47;;;;;;;11.45;85.15;103055.38;5073775;28;20791;-35
2023/05/26 07:02:40;;;;;;;19.23;5.47;;;;;;;11.37;85.75;103062.72;5073429;28;20533;-36
2023/05/26 07:05:05;;;;;;;;;;;;;;;11.53;86.35;103060.72;5074110;28;20089;-36
2023/05/26 07:07:30;;;;;;;23.20;4.95;;;;;;;11.47;84.98;103057.91;5074235;28;19912;-35
2023/05/26 07:09:56;;;;;;;20.73;5.87;;;;;;;11.32;85.40;103055.13;5073405;28;20490;-36
2023/05/26 07:12:21;;;;;;;18.63;4.88;;;;;;;11.32;86.70;103068.69;5073672;28;20725;-36
2023/05/26 07:14:47;;;;;;;22.50;5.88;;;;;;;11.44;85.75;103061.81;5073379;28;20131;-36
2023/05/26 07:17:13;;;;;;;16.02;4.65;;;;;;;11.57;85.78;103070.19;5073361;28;20085;-35
2023/05/26 07:19:38;;;;;;;17.40;4.75;;;;;;;11.76;85.61;103073.38;5073729;28;20111;-36
2023/05/26 07:22:04;;;;;;;18.42;5.47;;;;;;;11.66;84.84;103064.66;5076097;28;20064;-36
2023/05/26 07:24:30;;;;;;;18.85;4.20;;;;;;;11.81;84.24;103060.13;5078103;28;20028;-36
2023/05/26 07:26:55;;;;;;;22.42;5.85;;;;;;;11.90;84.12;103069.88;5078064;28;20594;-36
2023/05/26 07:29:20;;;;;;;17.95;4.88;;;;;;;11.75;82.97;103055.44;5076874;28;20041;-35
2023/05/26 07:31:46;;;;;;;17.53;4.77;;;;;;;11.88;82.99;103066.50;5077225;28;20028;-36
2023/05/26 07:34:11;;;;;;;18.57;4.70;;;;;;;12.13;84.75;103066.25;5077931;28;20321;-36
2023/05/26 07:36:37;;;;;;;18.52;5.10;;;;;;;12.22;83.33;103075.97;5077016;28;20283;-36
2023/05/26 07:39:02;;;;;;;16.57;4.27;;;;;;;12.27;83.42;103076.25;5077253;28;20032;-36
2023/05/26 07:41:27;;;;;;;22.15;5.38;;;;;;;12.15;82.15;103067.75;5076898;28;20369;-36
2023/05/26 07:43:53;;;;;;;18.65;4.47;;;;;;;12.10;82.83;103068.31;5076791;28;20449;-36
2023/05/26 07:46:18;;;;;;;18.07;5.20;;;;;;;12.14;81.27;103070.63;5076643;28;20063;-36
2023/05/26 07:48:44;;;;;;;17.98;5.05;;;;;;;12.23;82.07;103069.50;5076442;28;20024;-36
2023/05/26 07:51:09;;;;;;;15.70;4.90;;;;;;;12.38;82.38;103070.34;5077042;28;20025;-36
2023/05/26 07:53:35;;;;;;;16.25;4.97;;;;;;;12.48;80.93;103062.75;5076369;28;20027;-36
2023/05/26 07:56:00;;;;;;;17.10;4.70;;;;;;;12.55;78.51;103058.25;5076922;28;20028;-36
2023/05/26 07:58:26;;;;;;;18.75;5.20;;;;;;;12.66;78.01;103067.78;5076238;28;20036;-36
2023/05/26 08:00:51;;;;;;;17.42;5.10;;;;;;;12.69;78.09;103067.41;5076799;28;20131;-36
2023/05/26 08:03:17;;;;;;;19.50;4.85;;;;;;;12.72;77.48;103061.56;5076501;28;20537;-36
2023/05/26 08:05:43;;;;;;;18.60;4.88;;;;;;;12.68;77.41;103056.72;5076219;28;20048;-36
2023/05/26 08:08:08;;;;;;;21.73;5.47;;;;;;;12.67;76.93;103066.72;5076706;28;20033;-37
2023/05/26 08:10:34;;;;;;;15.68;4.65;;;;;;;12.93;77.89;103065.34;5076688;28;20500;-36
2023/05/26 08:12:59;;;;;;;16.73;5.20;;;;;;;12.92;76.55;103069.09;5076315;28;20097;-36
2023/05/26 08:15:25;;;;;;;18.80;5.00;;;;;;;12.63;76.25;103063.53;5077199;28;20035;-36
2023/05/26 08:17:50;;;;;;;18.95;5.20;;;;;;;12.73;75.25;103060.53;5075983;28;20266;-36
2023/05/26 08:20:16;;;;;;;23.95;5.47;;;;;;;12.75;75.93;103060.34;5076748;28;20389;-36
2023/05/26 08:22:41;;;;;;;16.23;5.15;;;;;;;12.83;76.33;103057.50;5076471;28;20031;-35
2023/05/26 08:25:07;;;;;;;14.27;4.63;;;;;;;13.10;77.20;103061.34;5076747;28;20024;-36
2023/05/26 08:27:32;;;;;;;14.45;4.38;;;;;;;13.15;74.37;103067.88;5076924;28;20334;-36
2023/05/26 08:29:58;;;;;;;17.25;4.18;;;;;;;13.12;73.97;103046.53;5075795;28;20166;-36
2023/05/26 08:32:23;;;;;;;14.18;3.90;;;;;;;13.31;73.70;103063.25;5075559;28;20020;-36
2023/05/26 08:34:49;;;;;;;12.32;4.20;;;;;;;13.40;73.89;103057.47;5075979;28;20025;-36
2023/05/26 08:37:15;;;;;;;;;;;;;;;13.67;74.58;103057.72;5076427;28;20028;-36
2023/05/26 08:39:41;;;;;;;14.93;4.40;;;;;;;13.72;72.14;103063.38;5075717;28;20353;-36
2023/05/26 08:42:07;;;;;;;;;;;;;;;13.87;71.82;103055.13;5076636;28;20043;-36
2023/05/26 08:44:36;;;;;;;14.65;4.50;;;;;;;13.81;71.13;103040.44;5075760;28;20003;-36
2023/05/26 08:47:05;;;;;;;11.93;4.13;;;;;;;13.91;71.53;103056.41;5076035;28;20032;-36
2023/05/26 08:49:39;;;;;;;14.80;4.70;;;;;;;14.03;70.15;103052.06;5076482;28;20024;-36
2023/05/26 08:52:13;;;;;;;15.65;4.60;;;;;;;14.16;69.65;103048.59;5076486;28;20152;-36
2023/05/26 08:54:41;;;;;;;14.43;4.15;;;;;;;14.11;68.67;103027.44;5076360;28;20049;-36
2023/05/26 08:57:10;;;;;;;18.08;4.57;;;;;;;14.21;68.30;103051.56;5075605;28;20033;-36
2023/05/26 08:59:36;;;;;;;14.20;4.60;;;;;;;14.24;68.24;103061.19;5075300;28;20116;-36
2023/05/26 09:02:02;;;;;;;14.20;4.10;;;;;;;14.38;68.58;103054.75;5075752;28;20028;-36
2023/05/26 09:04:29;;;;;;;;;;;;;;;14.64;70.33;103049.47;5076683;28;20456;-36
2023/05/26 09:06:54;;;;;;;15.15;3.90;;;;;;;14.58;67.30;103050.25;5075645;28;20018;-36
2023/05/26 09:09:20;;;;;;;12.23;4.15;;;;;;;14.63;64.13;103053.22;5075360;28;20112;-36
2023/05/26 09:11:48;;;;;;;;;;;;;;;14.75;65.08;103058.09;5076602;28;20036;-36
2023/05/26 09:14:15;;;;;;;10.98;4.20;;;;;;;14.61;62.91;103060.75;5075770;28;19912;-36
2023/05/26 09:16:41;;;;;;;12.05;4.40;;;;;;;14.50;62.95;103050.47;5075760;28;20024;-36
2023/05/26 09:19:06;;;;;;;;;;;;;;;14.87;64.60;103049.09;5075591;28;20518;-36
2023/05/26 09:21:32;;;;;;;13.25;3.97;;;;;;;14.91;61.77;103054.97;5075148;28;20283;-36
2023/05/26 09:23:58;;;;;;;;;;;;;;;15.00;62.25;103061.91;5075177;28;20033;-36
2023/05/26 09:26:34;;;;;;;12.27;4.07;;;;;;;14.89;60.95;103057.06;5075318;28;19950;-36
2023/05/26 09:29:01;;;;;;;14.10;4.18;;;;;;;15.03;61.11;103058.78;5074721;28;20020;-36
2023/05/26 09:31:44;;;;;;;13.30;4.22;;;;;;;15.35;63.76;103054.41;5074940;28;20043;-36
2023/05/26 09:34:10;;;;;;;12.73;3.85;;;;;;;15.48;62.59;103061.75;5075585;28;20070;-36
2023/05/26 09:36:37;;;;;;;14.20;4.05;;;;;;;15.48;58.82;103042.66;5075112;28;20025;-36
2023/05/26 09:39:13;;;;;;;12.02;3.67;;;;;;;15.58;57.73;103062.16;5074366;28;20477;-36
2023/05/26 09:41:43;;;;;;;17.08;4.88;;;;;;;15.49;57.62;103066.16;5074244;28;20523;-36
2023/05/26 09:44:12;;;;;;;11.73;3.60;;;;;;;15.54;57.34;103060.91;5074105;28;20047;-37
2023/05/26 09:46:39;;;;;;;8.32;3.15;;;;;;;15.64;56.68;103052.31;5075174;28;20025;-37
2023/05/26 09:49:12;;;;;;;11.63;3.67;;;;;;;15.97;59.10;103055.00;5074419;28;20526;-37
2023/05/26 09:51:39;;;;;;;13.07;4.38;;;;;;;15.94;56.34;103055.44;5074152;28;20028;-37
2023/05/26 09:54:05;;;;;;;11.18;3.35;;;;;;;16.22;55.92;103053.25;5074112;28;20056;-37
2023/05/26 09:56:34;;;;;;;;;;;;;;;16.45;54.09;103054.66;5075414;28;20507;-36
2023/05/26 09:59:05;;;;;;;10.07;3.50;;;;;;;16.21;51.30;103045.28;5074048;28;20273;-36
2023/05/26 10:01:31;;;;;;;11.63;4.10;;;;;;;16.16;54.01;103047.81;5074611;28;20044;-36
2023/05/26 10:03:57;;;;;;;11.82;3.65;;;;;;;16.30;53.17;103033.06;5074241;28;20032;-36
2023/05/26 10:06:23;;;;;;;11.05;3.97;;;;;;;16.44;52.22;103047.47;5075038;28;20082;-36
2023/05/26 10:08:52;;;;;;;17.23;3.90;;;;;;;16.58;51.94;103040.91;5073827;28;20020;-36
2023/05/26 10:11:20;;;;;;;11.00;3.55;;;;;;;16.51;51.95;103040.13;5074178;28;20036;-37
2023/05/26 10:13:49;;;;;;;12.68;4.43;;;;;;;16.46;53.32;103039.94;5074010;28;20081;-36
2023/05/26 10:16:15;;;;;;;14.38;4.68;;;;;;;16.25;50.51;103032.03;5074310;28;20028;-36
2023/05/26 10:18:40;;;;;;;;;;;;;;;16.67;53.24;103041.50;5074383;28;20469;-37
2023/05/26 10:21:10;;;;;;;12.67;3.77;;;;;;;16.57;50.31;103036.50;5074161;28;19913;-37
2023/05/26 10:23:42;;;;;;;15.73;4.07;;;;;;;16.66;49.09;103032.47;5073891;28;20354;-37
2023/05/26 10:26:17;;;;;;;8.98;3.78;;;;;;;16.60;47.70;103027.88;5074144;28;20024;-37
2023/05/26 10:29:03;;;;;;;10.77;3.50;;;;;;;16.90;50.16;103027.31;5074130;28;20027;-37
2023/05/26 10:31:34;;;;;;;9.82;3.42;;;;;;;17.17;49.98;103030.69;5074671;28;20056;-36
2023/05/26 10:34:00;;;;;;;11.43;3.92;;;;;;;17.26;48.49;103012.94;5074615;28;20024;-36
2023/05/26 10:36:27;;;;;;;9.20;3.40;;;;;;;17.54;51.14;103019.88;5074010;28;20107;-37
2023/05/26 10:38:53;;;;;;;9.15;3.70;;;;;;;17.48;47.41;103019.72;5073689;28;20021;-36
2023/05/26 10:41:32;;;;;;;10.80;3.60;;;;;;;17.22;47.44;103008.97;5072365;28;20035;-36
2023/05/26 10:44:02;;;;;;;12.90;3.78;;;;;;;17.27;48.24;103003.69;5074371;28;20025;-36
2023/05/26 10:46:44;;;;;;;12.80;3.25;;;;;;;17.48;47.82;103014.22;5074248;28;20036;-37
2023/05/26 10:49:21;;;;;;;12.32;4.25;;;;;;;17.58;46.86;103012.88;5073573;28;20029;-36
2023/05/26 10:51:53;;;;;;;9.85;3.33;;;;;;;17.81;47.17;103014.97;5073881;28;20024;-36
2023/05/26 10:54:24;;;;;;;11.35;3.17;;;;;;;17.92;45.65;102997.81;5074119;28;20035;-37
2023/05/26 10:56:52;;;;;;;12.80;3.45;;;;;;;18.00;44.90;103002.97;5073652;28;20027;-37
2023/05/26 10:59:22;;;;;;;10.70;3.35;;;;;;;18.19;45.13;103001.06;5073506;28;20062;-37
2023/05/26 11:01:52;;;;;;;11.77;3.42;;;;;;;18.22;43.86;103009.66;5073972;28;20044;-37
2023/05/26 11:04:18;;;;;;;11.95;3.88;;;;;;;18.23;43.38;103014.06;5073766;28;20040;-37
2023/05/26 11:06:51;;;;;;;11.35;3.35;;;;;;;18.28;42.92;103002.44;5073704;28;20028;-37
2023/05/26 11:09:25;;;;;;;10.88;3.58;;;;;;;18.25;43.46;103005.63;5073697;28;20042;-37
2023/05/26 11:11:53;;;;;;;11.07;3.67;;;;;;;18.37;43.04;102989.25;5073674;28;20025;-37
2023/05/26 11:14:25;;;;;;;12.45;3.85;;;;;;;18.51;41.99;103007.19;5073326;28;20423;-37
2023/05/26 11:16:55;;;;;;;7.80;3.03;;;;;;;18.40;41.35;103000.59;5074119;28;20158;-37
2023/05/26 11:19:54;;;;;;;11.77;3.90;;;;;;;18.63;42.57;103007.22;5072545;28;20545;-37
2023/05/26 11:22:21;;;;;;;11.20;2.85;;;;;;;18.56;41.63;102996.38;5066548;28;20036;-37